Newark, New Jersey
Current Conditions -  °F | °C
As of 7:51 AM on Tuesday 21 Oct 2014 (Local Time) from KEWR Reporting Station
Broken Clouds Broken Clouds  
Wind Chill: 55°   Ceiling: 8000
Heat Index: 55°   Visibility: 10mi
Dew Point: 47°   Wind: 3mph
Humidity: 74%   Direction: 10°N
Pressure: 29.9"   Gusts: NA
Location:  40.73°N, 74.17°W
Report Text: KEWR 211151Z 01003KT 10SM SCT050 BKN080 BKN160 13/08 A2990 RMK AO2 SLP123 T01280083 10133 20117 55003
Loading
Personal Weather Stations






























Interactive Weather Map
Tropical Storm Tracking
New forecast layout! Learn more

10-Day Weather Forecast

Advertisements
Track Severe Weather on mobile